Time;durP1;ratioP1;P1;durP2;ratioP2;P2;SDS_P1;SDS_P2;PMS_P1;PMS_P2;Temp;Humidity;BMP_temperature;BMP_pressure;BME280_temperature;BME280_humidity;BME280_pressure;Samples;Min_cycle;Max_cycle;Signal;HPM_P1;HPM_P2
2023/01/09 00:01:34;;;;;;;0.20;0.20;;;15.10;99.90;;;;;;5071133;28;20107;-66
2023/01/09 00:04:00;;;;;;;0.20;0.20;;;15.10;99.90;;;;;;5072400;28;20036;-66
2023/01/09 00:06:26;;;;;;;0.40;0.40;;;15.00;99.90;;;;;;5072693;28;20028;-66
2023/01/09 00:08:52;;;;;;;0.20;0.20;;;14.90;99.90;;;;;;5072342;28;20477;-65
2023/01/09 00:11:18;;;;;;;0.30;0.30;;;15.00;99.90;;;;;;5072109;28;20082;-66
2023/01/09 00:13:43;;;;;;;0.20;0.20;;;15.00;99.90;;;;;;5072196;28;20044;-67
2023/01/09 00:16:09;;;;;;;0.20;0.20;;;15.00;99.90;;;;;;5072250;28;20035;-67
2023/01/09 00:18:35;;;;;;;0.20;0.20;;;15.00;99.90;;;;;;5072116;28;20024;-69
2023/01/09 00:21:03;;;;;;;0.20;0.20;;;14.90;99.90;;;;;;5071770;28;20020;-70
2023/01/09 00:23:29;;;;;;;1.88;1.65;;;14.80;99.90;;;;;;5072262;28;20052;-72
2023/01/09 00:26:16;;;;;;;0.20;0.20;;;14.70;99.90;;;;;;5072286;28;20052;-72
2023/01/09 00:28:43;;;;;;;0.20;0.20;;;14.60;99.90;;;;;;5072112;28;20020;-72
2023/01/09 00:31:09;;;;;;;0.20;0.20;;;14.60;99.90;;;;;;5071819;28;20024;-70
2023/01/09 00:33:44;;;;;;;0.20;0.20;;;14.50;99.90;;;;;;5071750;28;20102;-69
2023/01/09 00:36:10;;;;;;;0.75;0.75;;;14.50;99.90;;;;;;5071827;28;20529;-70
2023/01/09 00:38:36;;;;;;;0.20;0.20;;;14.50;99.90;;;;;;5071836;28;20500;-69
2023/01/09 00:41:04;;;;;;;0.30;0.30;;;14.30;99.90;;;;;;5072055;28;20056;-69
2023/01/09 00:43:36;;;;;;;0.20;0.20;;;14.50;99.90;;;;;;5072658;28;20031;-68
2023/01/09 00:46:04;;;;;;;0.30;0.30;;;14.50;99.90;;;;;;5071852;28;20021;-70
2023/01/09 00:48:32;;;;;;;0.20;0.20;;;14.40;99.90;;;;;;5071691;28;20039;-67
2023/01/09 00:50:59;;;;;;;0.30;0.30;;;14.30;99.90;;;;;;5071292;28;20489;-68
2023/01/09 00:53:30;;;;;;;0.20;0.20;;;15.00;99.90;;;;;;5071654;28;20481;-68
2023/01/09 00:56:00;;;;;;;0.30;0.30;;;14.30;99.90;;;;;;5071563;28;20038;-67
2023/01/09 00:58:25;;;;;;;0.30;0.30;;;14.20;99.90;;;;;;5070293;28;20025;-67
2023/01/09 01:00:51;;;;;;;0.20;0.20;;;14.20;99.90;;;;;;5071413;28;20032;-67
2023/01/09 01:03:17;;;;;;;0.30;0.30;;;14.20;99.90;;;;;;5071431;28;20032;-67
2023/01/09 01:08:26;;;;;;;0.32;0.32;;;14.10;99.90;;;;;;5071624;28;20036;-66
2023/01/09 01:10:52;;;;;;;0.30;0.30;;;14.10;99.90;;;;;;5071327;28;20021;-67
2023/01/09 01:13:18;;;;;;;0.20;0.20;;;14.20;99.90;;;;;;5071342;28;20056;-66
2023/01/09 01:15:44;;;;;;;0.30;0.30;;;14.00;99.90;;;;;;5071386;28;20523;-67
2023/01/09 01:18:12;;;;;;;0.40;0.40;;;14.00;99.90;;;;;;5071329;28;20109;-66
2023/01/09 01:20:44;;;;;;;0.20;0.20;;;14.10;99.90;;;;;;5071061;28;20029;-66
2023/01/09 01:23:10;;;;;;;4.68;3.47;;;14.00;99.90;;;;;;5071249;28;20031;-66
2023/01/09 01:25:40;;;;;;;0.20;0.20;;;14.10;99.90;;;;;;5071395;28;20024;-65
2023/01/09 01:28:06;;;;;;;0.20;0.20;;;14.20;99.90;;;;;;5071379;28;20029;-66
2023/01/09 01:30:35;;;;;;;0.28;0.28;;;14.10;99.90;;;;;;5070830;28;20025;-66
2023/01/09 01:33:01;;;;;;;0.22;0.22;;;14.10;99.90;;;;;;5070337;28;20032;-67
2023/01/09 01:35:27;;;;;;;0.20;0.20;;;13.90;99.90;;;;;;5069676;28;20028;-65
2023/01/09 01:37:52;;;;;;;5.72;4.55;;;13.90;99.90;;;;;;5070968;28;20024;-66
2023/01/09 01:40:18;;;;;;;0.30;0.30;;;13.80;99.90;;;;;;5070947;28;20024;-64
2023/01/09 01:42:46;;;;;;;0.30;0.30;;;13.80;99.90;;;;;;5071156;28;20385;-65
2023/01/09 01:45:20;;;;;;;0.30;0.30;;;13.80;99.90;;;;;;5071096;28;20033;-65
2023/01/09 01:47:57;;;;;;;0.30;0.30;;;13.70;99.90;;;;;;5071070;28;20461;-65
2023/01/09 01:50:45;;;;;;;0.25;0.25;;;13.70;99.90;;;;;;5069410;28;20362;-65
2023/01/09 01:53:22;;;;;;;0.20;0.20;;;13.60;99.90;;;;;;5070797;28;20163;-65
2023/01/09 01:55:54;;;;;;;0.30;0.30;;;13.60;99.90;;;;;;5070810;28;20039;-65
2023/01/09 01:58:20;;;;;;;0.20;0.20;;;13.50;99.90;;;;;;5070888;28;20107;-65
2023/01/09 02:00:47;;;;;;;0.30;0.30;;;13.50;99.90;;;;;;5070701;28;20095;-65
2023/01/09 02:03:19;;;;;;;0.22;0.22;;;13.40;99.90;;;;;;5069435;28;20075;-65
2023/01/09 02:05:44;;;;;;;0.47;0.47;;;13.40;99.90;;;;;;5070830;28;20606;-65
2023/01/09 02:08:11;;;;;;;0.20;0.20;;;13.40;99.90;;;;;;5070841;28;20043;-65
2023/01/09 02:10:38;;;;;;;0.30;0.30;;;13.40;99.90;;;;;;5070805;28;20020;-65
2023/01/09 02:13:05;;;;;;;0.30;0.30;;;13.40;99.90;;;;;;5070586;28;20059;-64
2023/01/09 02:15:52;;;;;;;0.30;0.30;;;13.30;99.90;;;;;;5070764;28;20024;-65
2023/01/09 02:18:45;;;;;;;0.20;0.20;;;13.30;99.90;;;;;;5070931;28;20051;-65
2023/01/09 02:21:40;;;;;;;0.30;0.30;;;13.40;99.90;;;;;;5070491;28;20017;-66
2023/01/09 02:24:24;;;;;;;0.30;0.30;;;13.30;99.90;;;;;;5070910;28;20016;-66
2023/01/09 02:27:26;;;;;;;0.30;0.30;;;13.40;99.90;;;;;;5069445;28;20052;-65
2023/01/09 02:30:09;;;;;;;;;;;13.30;99.90;;;;;;5070846;28;20025;-65
2023/01/09 02:33:00;;;;;;;0.30;0.30;;;13.20;99.90;;;;;;5070476;28;19912;-65
2023/01/09 02:36:01;;;;;;;0.20;0.20;;;13.30;99.90;;;;;;5061963;28;20036;-65
2023/01/09 02:38:53;;;;;;;0.30;0.30;;;13.30;99.90;;;;;;5026619;28;20056;-65
2023/01/09 02:41:18;;;;;;;;;;;13.40;99.90;;;;;;5070941;28;20016;-65
2023/01/09 02:43:44;;;;;;;0.20;0.20;;;13.50;99.90;;;;;;5072688;28;19905;-64
2023/01/09 02:46:21;;;;;;;0.30;0.30;;;13.50;99.90;;;;;;5073078;28;20032;-65
2023/01/09 02:48:51;;;;;;;0.20;0.20;;;13.60;99.90;;;;;;5074179;28;20065;-64
2023/01/09 02:51:29;;;;;;;0.30;0.30;;;13.60;99.90;;;;;;5068429;28;20037;-65
2023/01/09 02:54:08;;;;;;;0.30;0.30;;;13.60;99.90;;;;;;5072275;28;20115;-64
2023/01/09 02:56:52;;;;;;;0.30;0.30;;;13.60;99.90;;;;;;5072486;28;20050;-65
2023/01/09 02:59:29;;;;;;;0.22;0.22;;;13.70;99.90;;;;;;5073287;28;20048;-65
2023/01/09 03:02:13;;;;;;;0.52;0.52;;;13.70;99.90;;;;;;5073994;28;20081;-64
2023/01/09 03:05:01;;;;;;;0.30;0.30;;;13.70;99.90;;;;;;5069513;28;20067;-64
2023/01/09 03:07:42;;;;;;;0.63;0.63;;;13.70;99.90;;;;;;5073397;28;20033;-65
2023/01/09 03:10:31;;;;;;;0.28;0.28;;;13.70;99.90;;;;;;5072463;28;20036;-65
2023/01/09 03:13:00;;;;;;;0.20;0.20;;;13.70;99.90;;;;;;5073039;28;20033;-65
2023/01/09 03:15:29;;;;;;;0.20;0.20;;;13.70;99.90;;;;;;5073458;28;20033;-65
2023/01/09 03:17:56;;;;;;;0.20;0.20;;;13.70;99.90;;;;;;5073387;28;20562;-66
2023/01/09 03:20:26;;;;;;;0.82;0.82;;;13.80;99.90;;;;;;5073378;28;20033;-65
2023/01/09 03:22:53;;;;;;;0.25;0.25;;;13.80;99.90;;;;;;5073613;28;20070;-65
2023/01/09 03:25:18;;;;;;;0.30;0.30;;;13.80;99.90;;;;;;5073353;28;20026;-65
2023/01/09 03:27:44;;;;;;;0.20;0.20;;;13.80;99.90;;;;;;5073229;28;20024;-66
2023/01/09 03:30:10;;;;;;;0.30;0.30;;;13.90;99.90;;;;;;5073044;28;20085;-65
2023/01/09 03:32:36;;;;;;;0.20;0.20;;;14.00;99.90;;;;;;5073117;28;20488;-65
2023/01/09 03:35:02;;;;;;;0.30;0.30;;;13.90;99.90;;;;;;5073417;28;20032;-66
2023/01/09 03:37:27;;;;;;;0.90;0.82;;;14.00;99.90;;;;;;5073163;28;20035;-65
2023/01/09 03:39:53;;;;;;;0.30;0.30;;;14.00;99.90;;;;;;5072460;28;20024;-65
2023/01/09 03:42:18;;;;;;;0.30;0.30;;;14.00;99.90;;;;;;5073997;28;20548;-64
2023/01/09 03:44:44;;;;;;;0.30;0.30;;;14.10;99.90;;;;;;5074102;28;20043;-65
2023/01/09 03:47:10;;;;;;;0.30;0.30;;;14.10;99.90;;;;;;5074097;28;20021;-65
2023/01/09 03:49:35;;;;;;;0.30;0.30;;;14.10;99.90;;;;;;5073521;28;20110;-65
2023/01/09 03:52:01;;;;;;;0.75;0.75;;;14.10;99.90;;;;;;5073290;28;20055;-63
2023/01/09 03:54:27;;;;;;;0.30;0.30;;;14.00;99.90;;;;;;5072128;28;20024;-65
2023/01/09 03:56:52;;;;;;;0.22;0.22;;;14.00;99.90;;;;;;5072700;28;20033;-64
2023/01/09 03:59:18;;;;;;;0.20;0.20;;;14.10;99.90;;;;;;5072683;28;20028;-65
2023/01/09 04:01:44;;;;;;;0.30;0.30;;;14.10;99.90;;;;;;5072866;28;20428;-65
2023/01/09 04:04:09;;;;;;;0.30;0.30;;;14.10;99.90;;;;;;5072584;28;20521;-64
2023/01/09 04:06:35;;;;;;;0.22;0.22;;;14.10;99.90;;;;;;5072529;28;20104;-63
2023/01/09 04:09:01;;;;;;;0.30;0.30;;;14.10;99.90;;;;;;5072509;28;20070;-64
2023/01/09 04:11:26;;;;;;;0.28;0.28;;;14.20;99.90;;;;;;5072476;28;20481;-65
2023/01/09 04:13:52;;;;;;;5.80;3.40;;;14.20;99.90;;;;;;5072133;28;20048;-65
2023/01/09 04:16:18;;;;;;;0.30;0.30;;;14.30;99.90;;;;;;5072262;28;20033;-64
2023/01/09 04:18:43;;;;;;;1.40;1.30;;;14.20;99.90;;;;;;5072169;28;20021;-64
2023/01/09 04:21:09;;;;;;;0.30;0.30;;;14.20;99.90;;;;;;5070748;28;20025;-65
2023/01/09 04:23:35;;;;;;;0.20;0.20;;;14.20;99.90;;;;;;5072196;28;20553;-64
2023/01/09 04:26:01;;;;;;;0.30;0.30;;;14.20;99.90;;;;;;5072130;28;20025;-65
2023/01/09 04:28:27;;;;;;;0.20;0.20;;;14.20;99.90;;;;;;5071892;28;20152;-64
2023/01/09 04:30:53;;;;;;;0.20;0.20;;;14.20;99.90;;;;;;5054015;28;20051;-65
2023/01/09 04:33:18;;;;;;;0.20;0.20;;;14.10;99.90;;;;;;5071845;28;20044;-64
2023/01/09 04:35:44;;;;;;;0.25;0.25;;;14.20;99.90;;;;;;5072313;28;20021;-66
2023/01/09 04:38:10;;;;;;;0.20;0.20;;;14.10;99.90;;;;;;5072040;28;20098;-66
2023/01/09 04:40:36;;;;;;;0.40;0.40;;;14.20;99.90;;;;;;5070805;28;20025;-64
2023/01/09 04:43:01;;;;;;;0.20;0.20;;;14.20;99.90;;;;;;5072074;28;20103;-66
2023/01/09 04:45:27;;;;;;;0.30;0.30;;;14.20;99.90;;;;;;5072185;28;20021;-65
2023/01/09 04:47:53;;;;;;;5.10;1.95;;;14.20;99.90;;;;;;5071819;28;20066;-64
2023/01/09 04:50:18;;;;;;;0.30;0.30;;;14.20;99.90;;;;;;5071486;28;20028;-65
2023/01/09 04:52:44;;;;;;;0.30;0.30;;;14.20;99.90;;;;;;5071419;28;20493;-65
2023/01/09 04:55:10;;;;;;;0.30;0.30;;;14.20;99.90;;;;;;5071487;28;20086;-65
2023/01/09 04:57:36;;;;;;;0.30;0.30;;;14.30;99.90;;;;;;5071420;28;20055;-64
2023/01/09 05:00:03;;;;;;;0.22;0.22;;;14.30;99.90;;;;;;5071471;28;20020;-64
2023/01/09 05:02:29;;;;;;;0.22;0.22;;;14.30;99.90;;;;;;5071572;28;20056;-64
2023/01/09 05:04:54;;;;;;;0.30;0.30;;;14.30;99.90;;;;;;5071258;28;20490;-65
2023/01/09 05:07:20;;;;;;;0.30;0.30;;;14.40;99.90;;;;;;5069810;28;20025;-64
2023/01/09 05:09:46;;;;;;;0.30;0.30;;;14.30;99.90;;;;;;5071251;28;20107;-64
2023/01/09 05:12:12;;;;;;;0.30;0.30;;;14.30;99.90;;;;;;5053228;28;20504;-63
2023/01/09 05:14:37;;;;;;;0.30;0.30;;;14.30;99.90;;;;;;5071191;28;20044;-64
2023/01/09 05:17:03;;;;;;;0.20;0.20;;;14.40;99.90;;;;;;5071193;28;20027;-68
2023/01/09 05:19:28;;;;;;;0.30;0.30;;;14.30;99.90;;;;;;5071380;28;20143;-64
2023/01/09 05:21:54;;;;;;;0.30;0.30;;;14.30;99.90;;;;;;5069976;28;20032;-64
2023/01/09 05:24:20;;;;;;;0.40;0.40;;;14.20;99.90;;;;;;5071266;28;20020;-64
2023/01/09 05:26:45;;;;;;;0.30;0.30;;;14.20;99.90;;;;;;5069863;28;20362;-64
2023/01/09 05:29:11;;;;;;;0.25;0.25;;;14.30;99.90;;;;;;5071146;28;20024;-64
2023/01/09 05:31:37;;;;;;;0.30;0.30;;;14.20;99.90;;;;;;5071100;28;20526;-64
2023/01/09 05:34:03;;;;;;;0.20;0.20;;;14.30;99.90;;;;;;5071200;28;20021;-64
2023/01/09 05:36:28;;;;;;;0.30;0.30;;;14.30;99.90;;;;;;5070982;28;20646;-64
2023/01/09 05:38:56;;;;;;;0.20;0.20;;;14.30;99.90;;;;;;5071089;28;20633;-63
2023/01/09 05:41:22;;;;;;;0.20;0.20;;;14.30;99.90;;;;;;5070988;28;20036;-64
2023/01/09 05:43:48;;;;;;;0.20;0.20;;;14.20;99.90;;;;;;5070981;28;20024;-64
2023/01/09 05:46:13;;;;;;;0.20;0.20;;;14.10;99.90;;;;;;5059214;28;20079;-64
2023/01/09 05:48:39;;;;;;;0.30;0.30;;;14.20;99.90;;;;;;5050388;28;20053;-64
2023/01/09 05:51:05;;;;;;;0.30;0.30;;;14.10;99.90;;;;;;5050792;28;20029;-64
2023/01/09 05:53:30;;;;;;;0.30;0.30;;;14.20;99.90;;;;;;5050850;28;20049;-64
2023/01/09 05:55:56;;;;;;;0.73;0.73;;;14.20;99.90;;;;;;5051011;28;20022;-64
2023/01/09 05:58:22;;;;;;;0.30;0.30;;;14.20;99.90;;;;;;5051178;28;20025;-64
2023/01/09 06:00:48;;;;;;;0.30;0.30;;;14.10;99.90;;;;;;5055509;28;20027;-64
2023/01/09 06:03:14;;;;;;;0.20;0.20;;;14.10;99.90;;;;;;5068502;28;20115;-63
2023/01/09 06:05:39;;;;;;;0.20;0.20;;;14.20;99.90;;;;;;5056284;28;20100;-63
2023/01/09 06:08:05;;;;;;;0.30;0.30;;;14.20;99.90;;;;;;5068601;28;20028;-62
2023/01/09 06:10:30;;;;;;;0.30;0.30;;;14.20;99.90;;;;;;5065228;28;20021;-63
2023/01/09 06:12:56;;;;;;;0.30;0.30;;;14.30;99.90;;;;;;5050336;28;20033;-65
2023/01/09 06:15:22;;;;;;;0.22;0.22;;;15.70;99.90;;;;;;5070407;28;20058;-64
2023/01/09 06:17:48;;;;;;;0.30;0.30;;;14.30;99.90;;;;;;5055301;28;20734;-64
2023/01/09 06:20:13;;;;;;;0.30;0.30;;;14.30;99.90;;;;;;5062865;28;20392;-65
2023/01/09 06:22:39;;;;;;;0.20;0.20;;;14.20;99.90;;;;;;5074454;28;20029;-64
2023/01/09 06:25:05;;;;;;;0.30;0.30;;;14.30;99.90;;;;;;5060169;28;20374;-64
2023/01/09 06:27:31;;;;;;;0.30;0.30;;;14.30;99.90;;;;;;5062544;28;20099;-63
2023/01/09 06:29:57;;;;;;;0.20;0.20;;;14.40;99.90;;;;;;5074118;28;20101;-64
2023/01/09 06:32:22;;;;;;;0.20;0.20;;;14.30;99.90;;;;;;5073937;28;20037;-64
2023/01/09 06:34:48;;;;;;;0.30;0.30;;;14.40;99.90;;;;;;5059867;28;20024;-65
2023/01/09 06:37:14;;;;;;;0.30;0.30;;;14.30;99.90;;;;;;5060442;28;20522;-65
2023/01/09 06:39:39;;;;;;;0.30;0.30;;;14.50;99.90;;;;;;5067556;28;20081;-65
2023/01/09 06:42:05;;;;;;;0.20;0.20;;;14.50;99.90;;;;;;5072506;28;20025;-64
2023/01/09 06:44:32;;;;;;;0.30;0.30;;;14.40;99.90;;;;;;5059436;28;20095;-64
2023/01/09 06:46:57;;;;;;;0.30;0.30;;;14.30;99.90;;;;;;5073821;28;20481;-64
2023/01/09 06:49:23;;;;;;;0.28;0.28;;;14.40;99.90;;;;;;5059654;28;20025;-64
2023/01/09 06:51:52;;;;;;;0.20;0.20;;;14.30;99.90;;;;;;5057127;28;20037;-64
2023/01/09 06:54:19;;;;;;;0.30;0.30;;;14.30;99.90;;;;;;5067210;28;20183;-64
2023/01/09 06:56:44;;;;;;;0.20;0.20;;;14.30;99.90;;;;;;5057927;28;20090;-64
2023/01/09 06:59:11;;;;;;;0.30;0.30;;;14.30;99.90;;;;;;5071798;28;20021;-64
2023/01/09 07:01:38;;;;;;;0.30;0.30;;;14.20;99.90;;;;;;5073324;28;20027;-64
2023/01/09 07:04:05;;;;;;;0.30;0.30;;;14.20;99.90;;;;;;5053542;28;20082;-65
2023/01/09 07:06:31;;;;;;;0.30;0.30;;;14.20;99.90;;;;;;5053707;28;20108;-65
2023/01/09 07:08:57;;;;;;;0.38;0.38;;;14.10;99.90;;;;;;5053601;28;20029;-66
2023/01/09 07:11:22;;;;;;;0.20;0.20;;;14.00;99.90;;;;;;5064091;28;20389;-64
2023/01/09 07:13:49;;;;;;;0.30;0.30;;;14.00;99.90;;;;;;5073594;28;20036;-65
2023/01/09 07:16:14;;;;;;;0.40;0.40;;;13.90;99.90;;;;;;5071971;28;20035;-65
2023/01/09 07:18:40;;;;;;;0.30;0.30;;;13.90;99.90;;;;;;5072440;28;20032;-65
2023/01/09 07:21:06;;;;;;;0.30;0.30;;;13.80;99.90;;;;;;5072818;28;20025;-64
2023/01/09 07:23:32;;;;;;;0.30;0.30;;;13.90;99.90;;;;;;5072160;28;20028;-66
2023/01/09 07:25:58;;;;;;;0.30;0.30;;;13.90;99.90;;;;;;5073609;28;20044;-64
2023/01/09 07:28:24;;;;;;;0.30;0.30;;;13.90;99.90;;;;;;5073398;28;20079;-65
2023/01/09 07:30:50;;;;;;;0.30;0.30;;;13.80;99.90;;;;;;5060105;28;20469;-65
2023/01/09 07:33:15;;;;;;;0.30;0.30;;;13.80;99.90;;;;;;5052714;28;20452;-65
2023/01/09 07:35:41;;;;;;;0.22;0.22;;;13.80;99.90;;;;;;5054201;28;20107;-64
2023/01/09 07:38:07;;;;;;;0.30;0.30;;;13.80;99.90;;;;;;5051174;28;20530;-64
2023/01/09 07:40:33;;;;;;;0.30;0.30;;;13.80;99.90;;;;;;5052349;28;20050;-64
2023/01/09 07:42:59;;;;;;;0.30;0.30;;;13.70;99.90;;;;;;5057172;28;20510;-66
2023/01/09 07:45:24;;;;;;;0.25;0.25;;;13.80;99.90;;;;;;5071222;28;20108;-65
2023/01/09 07:47:51;;;;;;;0.30;0.30;;;13.70;99.90;;;;;;5067710;28;20417;-65
2023/01/09 07:50:17;;;;;;;0.35;0.35;;;13.70;99.90;;;;;;5058639;28;20542;-63
2023/01/09 07:52:46;;;;;;;0.30;0.30;;;13.70;99.90;;;;;;5069928;28;20036;-63
2023/01/09 07:55:12;;;;;;;0.20;0.20;;;13.70;99.90;;;;;;5063811;28;20062;-65
2023/01/09 07:57:38;;;;;;;0.30;0.30;;;13.60;99.90;;;;;;5069147;28;20039;-64
2023/01/09 08:00:05;;;;;;;0.30;0.30;;;13.60;99.90;;;;;;5056691;28;20025;-64
2023/01/09 08:02:31;;;;;;;0.30;0.30;;;13.70;99.90;;;;;;5054867;28;20025;-64
2023/01/09 08:04:57;;;;;;;0.20;0.20;;;13.70;99.90;;;;;;5054981;28;20017;-64
2023/01/09 08:07:23;;;;;;;0.30;0.30;;;13.70;99.90;;;;;;5057537;28;20434;-64
2023/01/09 08:09:49;;;;;;;0.20;0.20;;;13.70;99.90;;;;;;5053487;28;20029;-65
2023/01/09 08:12:14;;;;;;;0.20;0.20;;;13.60;99.90;;;;;;5051649;28;20036;-65
2023/01/09 08:14:40;;;;;;;0.22;0.22;;;13.70;99.90;;;;;;5063155;28;20044;-66
2023/01/09 08:17:08;;;;;;;0.30;0.30;;;13.90;99.90;;;;;;5055937;28;20032;-63
2023/01/09 08:19:33;;;;;;;0.20;0.20;;;13.80;99.90;;;;;;5052553;28;20102;-64
2023/01/09 08:21:59;;;;;;;0.30;0.30;;;13.90;99.90;;;;;;5055054;28;20067;-65
2023/01/09 08:24:25;;;;;;;0.30;0.30;;;13.90;99.90;;;;;;5070587;28;20394;-65
2023/01/09 08:26:50;;;;;;;0.30;0.30;;;14.10;99.90;;;;;;5056731;28;20036;-65
2023/01/09 08:29:16;;;;;;;0.30;0.30;;;14.10;99.90;;;;;;5055563;28;20488;-65
2023/01/09 08:31:42;;;;;;;0.28;0.28;;;14.30;99.90;;;;;;5066700;28;20068;-65
2023/01/09 08:34:08;;;;;;;0.20;0.20;;;14.40;99.90;;;;;;5072101;28;20029;-64
2023/01/09 08:36:33;;;;;;;0.30;0.30;;;14.50;99.90;;;;;;5066554;28;20041;-64
2023/01/09 08:38:59;;;;;;;0.30;0.30;;;14.60;99.90;;;;;;5051749;28;20029;-64
2023/01/09 08:47:05;;;;;;;0.20;0.20;;;14.80;99.90;;;;;;5051780;28;20064;-65
2023/01/09 08:49:32;;;;;;;0.20;0.20;;;14.80;99.90;;;;;;5050777;28;20021;-65
2023/01/09 08:51:58;;;;;;;1.15;1.15;;;14.80;99.90;;;;;;5051549;28;20037;-65
2023/01/09 08:54:23;;;;;;;2.35;2.25;;;14.90;99.90;;;;;;5051810;28;20021;-64
2023/01/09 08:56:49;;;;;;;0.30;0.30;;;14.90;99.90;;;;;;5051537;28;20028;-64
2023/01/09 08:59:15;;;;;;;0.30;0.30;;;14.90;99.90;;;;;;5051957;28;20048;-64
2023/01/09 09:01:41;;;;;;;2.95;2.50;;;14.80;99.90;;;;;;5051602;28;20079;-64
2023/01/09 09:04:07;;;;;;;1.52;1.48;;;14.90;99.90;;;;;;5051298;28;20124;-65
2023/01/09 09:06:33;;;;;;;0.28;0.28;;;15.00;99.90;;;;;;5051612;28;20041;-65
2023/01/09 09:09:02;;;;;;;1.10;1.10;;;15.00;99.90;;;;;;5049827;28;20029;-65
2023/01/09 09:11:29;;;;;;;0.20;0.20;;;15.10;99.90;;;;;;5051406;28;20040;-63
2023/01/09 09:13:55;;;;;;;0.30;0.30;;;15.00;99.90;;;;;;5051056;28;20090;-63
2023/01/09 09:16:21;;;;;;;0.30;0.30;;;15.10;99.90;;;;;;5054174;28;20029;-64
2023/01/09 09:18:47;;;;;;;0.20;0.20;;;15.20;99.90;;;;;;5070088;28;20439;-64
2023/01/09 09:21:12;;;;;;;1.27;1.27;;;15.10;99.90;;;;;;5068267;28;20017;-62
2023/01/09 09:23:38;;;;;;;0.30;0.30;;;15.10;99.90;;;;;;5064491;28;20157;-62
2023/01/09 09:26:04;;;;;;;0.20;0.20;;;15.00;99.90;;;;;;5051230;28;20481;-63
2023/01/09 09:28:30;;;;;;;0.20;0.20;;;15.00;99.90;;;;;;5057887;28;20066;-62
2023/01/09 09:30:55;;;;;;;0.40;0.40;;;15.10;99.90;;;;;;5071843;28;20033;-63
2023/01/09 09:33:21;;;;;;;2.28;2.08;;;15.10;99.90;;;;;;5071436;28;20556;-66
2023/01/09 09:35:47;;;;;;;0.30;0.30;;;15.20;99.90;;;;;;5060318;28;20107;-63
2023/01/09 09:38:13;;;;;;;0.35;0.35;;;15.10;99.90;;;;;;5050143;28;20029;-64
2023/01/09 09:41:04;;;;;;;0.30;0.30;;;15.10;99.90;;;;;;5055663;28;20021;-65
2023/01/09 09:46:57;;;;;;;0.20;0.20;;;15.10;99.90;;;;;;5067221;28;20033;-65
2023/01/09 09:49:31;;;;;;;0.30;0.30;;;15.10;99.90;;;;;;5063081;28;20488;-63
2023/01/09 09:52:02;;;;;;;0.30;0.30;;;15.00;99.90;;;;;;5059377;28;20327;-65
2023/01/09 09:54:49;;;;;;;0.20;0.20;;;15.00;99.90;;;;;;5064686;28;20500;-65
2023/01/09 09:57:20;;;;;;;0.30;0.30;;;15.00;99.90;;;;;;5068496;28;20025;-65
2023/01/09 09:59:50;;;;;;;0.30;0.30;;;15.00;99.90;;;;;;5055984;28;20028;-65
2023/01/09 10:02:29;;;;;;;0.30;0.30;;;14.90;99.90;;;;;;5062724;28;20028;-66
2023/01/09 10:05:16;;;;;;;0.30;0.30;;;14.80;99.90;;;;;;5072579;28;20036;-65
2023/01/09 10:07:48;;;;;;;0.30;0.30;;;14.70;99.90;;;;;;5057916;28;20036;-65
2023/01/09 10:10:46;;;;;;;0.30;0.30;;;14.50;99.90;;;;;;5061954;28;20477;-65
2023/01/09 10:16:30;;;;;;;0.20;0.20;;;14.30;99.90;;;;;;5074150;28;20043;-64
2023/01/09 10:19:22;;;;;;;0.30;0.30;;;14.30;99.90;;;;;;5074693;28;20450;-64
2023/01/09 10:22:27;;;;;;;0.20;0.20;;;14.20;99.90;;;;;;5068697;28;20032;-64
2023/01/09 10:25:02;;;;;;;0.30;0.30;;;14.20;99.90;;;;;;5070500;28;20123;-64
2023/01/09 10:27:28;;;;;;;0.30;0.30;;;14.10;99.90;;;;;;5064528;28;20040;-64
2023/01/09 10:30:19;;;;;;;0.22;0.22;;;14.10;99.90;;;;;;5057539;28;20401;-65
2023/01/09 10:33:02;;;;;;;0.25;0.25;;;14.10;99.90;;;;;;5037067;28;20072;-65
2023/01/09 10:35:46;;;;;;;0.20;0.20;;;14.50;99.90;;;;;;5073532;28;20132;-65
2023/01/09 10:38:17;;;;;;;0.30;0.30;;;14.60;99.90;;;;;;5066467;28;20032;-65
2023/01/09 10:40:58;;;;;;;0.30;0.30;;;14.60;99.90;;;;;;5057793;28;20028;-65
2023/01/09 10:43:42;;;;;;;0.22;0.22;;;14.60;99.90;;;;;;5058492;28;20029;-65
2023/01/09 10:46:17;;;;;;;0.25;0.25;;;14.90;99.90;;;;;;5053153;28;20102;-66
2023/01/09 10:48:51;;;;;;;0.20;0.20;;;14.90;99.90;;;;;;5067917;28;20484;-65
2023/01/09 10:51:20;;;;;;;0.30;0.30;;;14.80;99.90;;;;;;5073604;28;20028;-65
2023/01/09 10:53:54;;;;;;;0.30;0.30;;;14.90;99.90;;;;;;5054648;28;20017;-64
2023/01/09 10:56:22;;;;;;;0.20;0.20;;;14.80;99.90;;;;;;5053022;28;20498;-64
2023/01/09 10:58:49;;;;;;;0.20;0.20;;;14.20;99.90;;;;;;5063774;28;20117;-65
2023/01/09 11:01:18;;;;;;;0.30;0.30;;;14.70;99.90;;;;;;5057374;28;20183;-65
2023/01/09 11:03:44;;;;;;;0.20;0.20;;;14.50;99.90;;;;;;5055319;28;20036;-66
2023/01/09 11:06:21;;;;;;;0.20;0.20;;;14.50;99.90;;;;;;5054828;28;20021;-66
2023/01/09 11:08:49;;;;;;;0.30;0.30;;;14.50;99.90;;;;;;5064057;28;20037;-66
2023/01/09 11:11:36;;;;;;;0.30;0.30;;;14.30;99.90;;;;;;5053876;28;20120;-65
2023/01/09 11:14:26;;;;;;;0.20;0.20;;;14.20;99.90;;;;;;5058805;28;20481;-65
2023/01/09 11:16:55;;;;;;;0.20;0.20;;;14.20;99.90;;;;;;5062175;28;20122;-65
2023/01/09 11:19:22;;;;;;;0.20;0.20;;;14.30;99.90;;;;;;5056877;28;20378;-66
2023/01/09 11:21:48;;;;;;;0.30;0.30;;;14.30;99.90;;;;;;5061990;28;20123;-66
2023/01/09 11:24:20;;;;;;;0.30;0.30;;;14.30;99.90;;;;;;5063738;28;20031;-66
2023/01/09 11:27:22;;;;;;;0.20;0.20;;;14.30;99.90;;;;;;5068354;28;20027;-66
2023/01/09 11:30:13;;;;;;;0.30;0.30;;;14.30;99.90;;;;;;5047003;28;20378;-66
2023/01/09 11:32:39;;;;;;;0.20;0.20;;;14.20;99.90;;;;;;5064946;28;20384;-65
2023/01/09 11:35:14;;;;;;;0.20;0.20;;;14.20;99.90;;;;;;5062458;28;20021;-65
2023/01/09 11:37:40;;;;;;;0.30;0.30;;;14.00;99.90;;;;;;5058285;28;20104;-65
2023/01/09 11:40:18;;;;;;;0.20;0.20;;;14.00;99.90;;;;;;5072903;28;20039;-65
2023/01/09 11:43:20;;;;;;;0.68;0.68;;;14.00;99.90;;;;;;5056382;28;20503;-65
2023/01/09 11:45:55;;;;;;;0.20;0.20;;;14.00;99.90;;;;;;5052739;28;20175;-65
2023/01/09 11:48:35;;;;;;;0.20;0.20;;;13.80;99.90;;;;;;5052654;28;20120;-64
2023/01/09 11:51:16;;;;;;;0.22;0.22;;;13.80;99.90;;;;;;5052824;28;20071;-64
2023/01/09 11:54:11;;;;;;;2.33;1.20;;;13.60;99.90;;;;;;5053887;28;20116;-65
2023/01/09 11:56:37;;;;;;;5.45;1.10;;;13.80;99.90;;;;;;5056710;28;20029;-66
2023/01/09 11:59:23;;;;;;;4.75;1.73;;;13.70;99.90;;;;;;5063686;28;20066;-66
2023/01/09 12:02:04;;;;;;;4.63;1.15;;;13.70;99.90;;;;;;5061254;28;20250;-66
2023/01/09 12:04:47;;;;;;;1.90;1.70;;;13.60;99.90;;;;;;5063556;28;20035;-65
2023/01/09 12:07:36;;;;;;;2.70;0.90;;;13.50;99.90;;;;;;5054312;28;20473;-66
2023/01/09 12:10:04;;;;;;;4.97;1.23;;;13.40;99.90;;;;;;5056779;28;20029;-66
2023/01/09 12:13:14;;;;;;;5.57;1.15;;;13.30;99.90;;;;;;5055976;28;20582;-66
2023/01/09 12:15:55;;;;;;;11.23;1.15;;;13.40;99.90;;;;;;5052240;28;20410;-65
2023/01/09 12:18:53;;;;;;;1.90;1.00;;;13.60;99.90;;;;;;5065433;28;20025;-65
2023/01/09 12:21:27;;;;;;;2.30;0.98;;;13.70;99.90;;;;;;5064964;28;20036;-66
2023/01/09 12:24:13;;;;;;;3.10;1.17;;;13.40;99.90;;;;;;5060481;28;20381;-67
2023/01/09 12:26:59;;;;;;;2.97;0.82;;;13.70;99.90;;;;;;5052451;28;20056;-64
2023/01/09 12:29:49;;;;;;;2.60;1.00;;;13.60;99.90;;;;;;5020669;28;20059;-66
2023/01/09 12:32:46;;;;;;;7.90;1.10;;;13.60;99.90;;;;;;5054033;28;20043;-66
2023/01/09 12:35:21;;;;;;;2.20;0.80;;;13.40;99.90;;;;;;5051946;28;20025;-66
2023/01/09 12:38:06;;;;;;;3.30;0.80;;;12.90;99.90;;;;;;5061607;28;20031;-67
2023/01/09 12:40:54;;;;;;;3.55;0.85;;;13.10;99.90;;;;;;5056950;28;20024;-67
2023/01/09 12:44:00;;;;;;;1.15;0.90;;;13.20;99.90;;;;;;5066589;28;20037;-67
2023/01/09 12:46:51;;;;;;;2.45;0.95;;;12.90;99.90;;;;;;5054789;28;20312;-67
2023/01/09 12:49:32;;;;;;;1.70;0.80;;;13.20;99.90;;;;;;5053037;28;20078;-66
2023/01/09 12:52:06;;;;;;;1.65;1.13;;;13.20;99.90;;;;;;5057830;28;20041;-66
2023/01/09 12:54:46;;;;;;;3.22;0.90;;;12.80;99.90;;;;;;5055399;28;20077;-66
2023/01/09 12:57:22;;;;;;;3.85;1.17;;;12.80;99.90;;;;;;5056725;28;20017;-67
2023/01/09 13:00:24;;;;;;;6.50;1.30;;;12.90;99.90;;;;;;5057789;28;20230;-65
2023/01/09 13:03:09;;;;;;;6.88;0.93;;;12.90;99.90;;;;;;5065526;28;20119;-65
2023/01/09 13:05:43;;;;;;;6.72;1.30;;;12.70;99.90;;;;;;5052765;28;20532;-65
2023/01/09 13:08:29;;;;;;;7.43;1.48;;;12.90;99.90;;;;;;5053265;28;20025;-67
2023/01/09 13:11:11;;;;;;;8.32;1.20;;;13.50;99.90;;;;;;5053090;28;20033;-67
2023/01/09 13:13:59;;;;;;;2.85;0.90;;;13.70;99.90;;;;;;5068055;28;20047;-66
2023/01/09 13:16:35;;;;;;;4.88;1.00;;;13.30;99.90;;;;;;5055464;28;20024;-66
2023/01/09 13:19:20;;;;;;;6.18;1.15;;;13.30;99.90;;;;;;5054393;28;20589;-67
2023/01/09 13:21:46;;;;;;;5.13;1.02;;;13.20;99.90;;;;;;5059917;28;20033;-67
2023/01/09 13:24:26;;;;;;;6.60;1.38;;;12.90;99.90;;;;;;5070795;28;20060;-67